Time;durP1;ratioP1;P1;durP2;ratioP2;P2;SDS_P1;SDS_P2;PMS_P1;PMS_P2;Temp;Humidity;BMP_temperature;BMP_pressure;BME280_temperature;BME280_humidity;BME280_pressure;Samples;Min_cycle;Max_cycle;Signal;HPM_P1;HPM_P2
2022/03/06 00:01:44;;;;;;;57.70;26.33;;;;;;;0.91;66.41;99552.02;2285024;78;21354;-81
2022/03/06 00:04:44;;;;;;;54.50;26.57;;;;;;;0.91;66.62;99545.19;2284891;78;21449;-81
2022/03/06 00:07:45;;;;;;;55.67;25.77;;;;;;;0.92;66.53;99546.08;2284646;78;20971;-82
2022/03/06 00:10:45;;;;;;;53.80;25.30;;;;;;;0.90;66.69;99550.23;2284992;78;20970;-82
2022/03/06 00:13:46;;;;;;;60.30;27.90;;;;;;;0.88;66.54;99551.83;2285128;78;20943;-81
2022/03/06 00:16:47;;;;;;;53.93;27.43;;;;;;;0.88;66.61;99550.14;2284923;78;20942;-81
2022/03/06 00:19:47;;;;;;;67.83;30.10;;;;;;;0.89;66.67;99549.75;2284655;78;20934;-81
2022/03/06 00:22:48;;;;;;;140.90;65.43;;;;;;;0.90;66.87;99551.13;2284849;78;20923;-81
2022/03/06 00:25:48;;;;;;;72.70;33.53;;;;;;;0.93;67.02;99541.43;2285051;78;20970;-81
2022/03/06 00:28:49;;;;;;;146.57;68.87;;;;;;;0.95;66.97;99547.16;2284946;78;20915;-81
2022/03/06 00:31:49;;;;;;;86.50;40.23;;;;;;;0.98;66.91;99540.42;2284822;78;20961;-81
2022/03/06 00:34:51;;;;;;;83.20;36.50;;;;;;;1.00;67.08;99539.72;2285455;77;21015;-81
2022/03/06 00:37:51;;;;;;;80.13;36.77;;;;;;;1.00;66.97;99543.97;2302835;77;21006;-81
2022/03/06 00:40:52;;;;;;;84.80;41.10;;;;;;;1.00;66.91;99537.55;2303578;77;20952;-81
2022/03/06 00:43:52;;;;;;;82.77;39.40;;;;;;;1.00;67.02;99536.27;2303254;77;20966;-80
2022/03/06 00:46:53;;;;;;;86.27;42.53;;;;;;;0.98;66.82;99534.88;2303358;77;20950;-81
2022/03/06 00:49:53;;;;;;;82.70;39.73;;;;;;;0.98;66.87;99538.73;2303164;77;21001;-81
2022/03/06 00:52:54;;;;;;;97.63;41.87;;;;;;;0.96;66.82;99541.61;2303354;77;20957;-81
2022/03/06 00:55:54;;;;;;;113.87;52.33;;;;;;;0.95;66.73;99538.55;2303212;77;20948;-81
2022/03/06 00:58:55;;;;;;;135.43;60.67;;;;;;;0.92;66.79;99530.66;2303210;77;20977;-81
2022/03/06 01:01:55;;;;;;;124.17;54.70;;;;;;;0.93;66.79;99528.58;2303213;77;21341;-82
2022/03/06 01:04:55;;;;;;;140.70;62.47;;;;;;;0.92;66.89;99529.37;2303159;77;21360;-82
2022/03/06 01:07:56;;;;;;;108.10;49.57;;;;;;;0.93;66.71;99529.47;2302675;77;21372;-82
2022/03/06 01:10:56;;;;;;;89.93;40.17;;;;;;;0.92;66.93;99531.55;2302981;77;20993;-82
2022/03/06 01:13:57;;;;;;;79.17;36.77;;;;;;;0.89;66.83;99531.76;2302971;77;20989;-82
2022/03/06 01:16:58;;;;;;;130.07;61.40;;;;;;;0.88;66.91;99527.41;2303183;77;21028;-82
2022/03/06 01:19:58;;;;;;;93.27;42.83;;;;;;;0.90;66.94;99533.53;2303037;77;20943;-82
2022/03/06 01:22:58;;;;;;;79.10;37.87;;;;;;;0.87;67.13;99526.52;2303060;77;20952;-83
2022/03/06 01:25:59;;;;;;;73.57;33.93;;;;;;;0.88;67.18;99528.70;2303193;77;21001;-82
2022/03/06 01:28:59;;;;;;;71.27;35.40;;;;;;;0.87;67.02;99523.95;2302944;77;20952;-82
2022/03/06 01:32:00;;;;;;;69.30;34.60;;;;;;;0.87;67.18;99528.20;2302848;77;21028;-81
2022/03/06 01:35:00;;;;;;;70.47;34.00;;;;;;;0.86;67.08;99530.25;2302703;77;21392;-81
2022/03/06 01:38:01;;;;;;;66.43;34.13;;;;;;;0.87;67.01;99526.92;2285190;78;21370;-81
2022/03/06 01:41:01;;;;;;;70.47;34.20;;;;;;;0.89;67.17;99522.76;2285930;78;21311;-81
2022/03/06 01:44:02;;;;;;;73.90;34.27;;;;;;;0.83;67.07;99523.24;2285409;78;21291;-82
2022/03/06 01:47:02;;;;;;;66.60;33.70;;;;;;;0.82;67.25;99520.58;2285328;78;20963;-82
2022/03/06 01:50:03;;;;;;;68.67;33.40;;;;;;;0.80;67.21;99517.03;2285543;78;20931;-80
2022/03/06 01:53:03;;;;;;;60.53;30.20;;;;;;;0.80;67.51;99519.60;2285485;78;20963;-81
2022/03/06 01:56:04;;;;;;;57.77;28.30;;;;;;;0.81;67.41;99520.09;2285456;78;20922;-81
2022/03/06 01:59:04;;;;;;;70.47;34.23;;;;;;;0.79;67.37;99520.00;2285429;78;20931;-82
2022/03/06 02:02:05;;;;;;;68.40;34.00;;;;;;;0.80;67.28;99516.63;2285304;78;20970;-80
2022/03/06 02:05:05;;;;;;;55.20;29.23;;;;;;;0.77;67.17;99512.99;2285657;78;20954;-80
2022/03/06 02:08:06;;;;;;;62.53;29.53;;;;;;;0.77;67.21;99519.02;2285433;78;21002;-81
2022/03/06 02:11:06;;;;;;;58.93;29.37;;;;;;;0.80;67.35;99522.17;2285546;78;20971;-80
2022/03/06 02:14:07;;;;;;;63.33;33.47;;;;;;;0.79;67.38;99518.71;2285782;78;20982;-81
2022/03/06 02:17:07;;;;;;;69.13;35.30;;;;;;;0.78;67.31;99519.91;2284703;78;20926;-83
2022/03/06 02:20:08;;;;;;;78.47;43.20;;;;;;;0.79;67.12;99522.97;2285367;78;21053;-81
2022/03/06 02:23:08;;;;;;;73.73;39.20;;;;;;;0.79;67.25;99525.53;2285339;78;20962;-81
2022/03/06 02:26:09;;;;;;;68.40;34.90;;;;;;;0.78;67.44;99528.50;2285666;78;20923;-81
2022/03/06 02:29:10;;;;;;;66.43;34.63;;;;;;;0.75;67.33;99520.61;2285406;78;21014;-81
2022/03/06 02:32:11;;;;;;;60.93;32.77;;;;;;;0.74;67.33;99524.37;2285463;78;20993;-82
2022/03/06 02:35:11;;;;;;;65.00;32.50;;;;;;;0.73;67.41;99519.63;2285030;78;20952;-81
2022/03/06 02:38:12;;;;;;;66.77;33.30;;;;;;;0.74;67.37;99519.23;2316055;77;20955;-81
2022/03/06 02:41:12;;;;;;;59.90;30.33;;;;;;;0.75;67.41;99522.29;2316640;77;20936;-81
2022/03/06 02:44:13;;;;;;;59.63;30.57;;;;;;;0.74;67.33;99523.08;2316861;77;20994;-81
2022/03/06 02:47:13;;;;;;;74.07;37.70;;;;;;;0.73;67.36;99522.59;2316548;77;20967;-82
2022/03/06 02:50:13;;;;;;;90.30;43.17;;;;;;;0.73;67.45;99519.63;2316642;77;21370;-82
2022/03/06 02:53:14;;;;;;;76.30;39.17;;;;;;;0.76;67.44;99521.09;2316651;77;20963;-82
2022/03/06 02:56:15;;;;;;;68.80;33.17;;;;;;;0.77;67.46;99519.41;2316306;77;20908;-82
2022/03/06 02:59:15;;;;;;;60.23;28.37;;;;;;;0.76;67.61;99520.20;2316783;77;20939;-81
2022/03/06 03:02:16;;;;;;;61.63;32.33;;;;;;;0.74;67.67;99517.95;2316575;77;20951;-82
2022/03/06 03:05:16;;;;;;;64.87;32.10;;;;;;;0.73;67.52;99520.91;2316517;77;20986;-82
2022/03/06 03:08:17;;;;;;;58.50;28.90;;;;;;;0.72;67.68;99519.13;2316693;77;21037;-81
2022/03/06 03:11:17;;;;;;;51.97;26.80;;;;;;;0.71;67.51;99515.19;2316552;77;21343;-82
2022/03/06 03:14:18;;;;;;;49.70;26.30;;;;;;;0.68;67.31;99517.57;2316703;77;20939;-82
2022/03/06 03:17:19;;;;;;;52.00;27.27;;;;;;;0.67;67.69;99514.52;2316790;77;20979;-82
2022/03/06 03:20:20;;;;;;;48.27;27.03;;;;;;;0.66;67.63;99514.02;2316250;77;20926;-81
2022/03/06 03:23:20;;;;;;;56.67;29.23;;;;;;;0.63;67.25;99509.19;2316682;77;20939;-81
2022/03/06 03:26:21;;;;;;;50.60;26.67;;;;;;;0.59;67.60;99511.47;2317104;77;20970;-82
2022/03/06 03:29:21;;;;;;;47.20;25.47;;;;;;;0.58;67.91;99513.16;2316566;77;20920;-82
2022/03/06 03:32:22;;;;;;;55.70;28.43;;;;;;;0.59;67.90;99510.19;2316899;77;21006;-81
2022/03/06 03:35:22;;;;;;;84.17;43.83;;;;;;;0.59;67.96;99512.36;2316218;77;20955;-81
2022/03/06 03:38:23;;;;;;;71.50;37.20;;;;;;;0.61;68.08;99509.89;2302595;77;21003;-82
2022/03/06 03:41:24;;;;;;;54.90;27.67;;;;;;;0.63;68.02;99509.19;2302542;77;20952;-82
2022/03/06 03:44:25;;;;;;;50.20;25.73;;;;;;;0.66;67.94;99507.20;2302476;77;20965;-82
2022/03/06 03:47:25;;;;;;;48.03;24.70;;;;;;;0.69;67.92;99511.64;2302410;77;20929;-83
2022/03/06 03:50:26;;;;;;;47.37;25.37;;;;;;;0.68;67.77;99509.86;2302818;77;20953;-81
2022/03/06 03:53:26;;;;;;;44.90;22.77;;;;;;;0.67;67.40;99506.41;2303392;77;21008;-80
2022/03/06 03:56:27;;;;;;;45.23;24.27;;;;;;;0.67;67.37;99510.26;2304125;77;21324;-82
2022/03/06 03:59:27;;;;;;;56.23;29.57;;;;;;;0.64;67.44;99513.53;2303277;77;20992;-82
2022/03/06 04:02:28;;;;;;;48.93;27.90;;;;;;;0.63;67.52;99511.75;2303551;77;20952;-81
2022/03/06 04:05:28;;;;;;;43.90;24.13;;;;;;;0.66;67.18;99513.63;2303868;77;20965;-82
2022/03/06 04:08:29;;;;;;;48.50;24.37;;;;;;;0.64;67.19;99508.39;2303672;77;20997;-81
2022/03/06 04:11:29;;;;;;;52.17;25.40;;;;;;;0.61;67.14;99513.34;2303449;77;20976;-83
2022/03/06 04:14:29;;;;;;;48.47;26.30;;;;;;;0.62;67.42;99514.23;2303419;77;21067;-83
2022/03/06 04:20:32;;;;;;;45.30;24.93;;;;;;;0.65;67.31;99505.42;2277485;77;20992;-81
2022/03/06 04:23:33;;;;;;;47.13;24.33;;;;;;;0.63;67.31;99511.75;2303395;77;20988;-83
2022/03/06 04:26:33;;;;;;;50.03;26.07;;;;;;;0.64;67.20;99503.65;2303220;77;21352;-83
2022/03/06 04:29:34;;;;;;;50.87;25.23;;;;;;;0.63;67.16;99511.75;2303290;77;20913;-83
2022/03/06 04:32:34;;;;;;;44.80;24.33;;;;;;;0.60;67.27;99508.11;2303333;77;20976;-83
2022/03/06 04:38:38;;;;;;;46.40;23.43;;;;;;;0.59;67.20;99504.66;2253216;78;21249;-81
2022/03/06 04:41:38;;;;;;;46.17;23.60;;;;;;;0.58;67.42;99510.58;2281514;78;20888;-82
2022/03/06 04:44:39;;;;;;;48.33;23.87;;;;;;;0.57;67.48;99512.66;2281629;78;20915;-82
2022/03/06 04:47:39;;;;;;;70.83;39.47;;;;;;;0.57;67.39;99510.09;2282057;78;21311;-83
2022/03/06 04:50:40;;;;;;;52.57;26.43;;;;;;;0.60;67.46;99515.81;2281454;78;21054;-81
2022/03/06 04:53:40;;;;;;;43.20;23.63;;;;;;;0.61;67.38;99515.02;2281744;78;20907;-82
2022/03/06 04:56:41;;;;;;;42.07;23.50;;;;;;;0.62;67.37;99511.27;2281956;78;20947;-81
2022/03/06 04:59:41;;;;;;;43.87;23.00;;;;;;;0.61;67.26;99514.63;2281637;78;20946;-82
2022/03/06 05:02:42;;;;;;;48.83;23.53;;;;;;;0.63;67.21;99513.44;2281614;78;20971;-81
2022/03/06 05:05:42;;;;;;;39.37;22.87;;;;;;;0.64;67.24;99518.67;2281596;78;20962;-82
2022/03/06 05:08:43;;;;;;;39.57;22.33;;;;;;;0.63;67.22;99513.44;2281395;78;21350;-83
2022/03/06 05:11:43;;;;;;;43.97;24.10;;;;;;;0.64;67.23;99514.81;2281729;78;21362;-83
2022/03/06 05:14:44;;;;;;;42.13;21.87;;;;;;;0.61;67.38;99514.63;2281789;78;21295;-82
2022/03/06 05:17:44;;;;;;;44.83;22.37;;;;;;;0.61;67.48;99515.02;2281686;78;21358;-84
2022/03/06 05:20:45;;;;;;;37.87;22.10;;;;;;;0.62;67.72;99517.69;2281809;78;20950;-83
2022/03/06 05:23:45;;;;;;;40.40;21.43;;;;;;;0.63;67.67;99520.75;2281887;78;20987;-84
2022/03/06 05:29:48;;;;;;;46.47;24.60;;;;;;;0.60;67.25;99520.56;2252911;78;21007;-83
2022/03/06 05:32:49;;;;;;;43.93;22.40;;;;;;;0.61;67.27;99524.02;2281794;78;20971;-82
2022/03/06 05:35:50;;;;;;;45.97;24.50;;;;;;;0.61;67.37;99520.16;2281751;78;21018;-83
2022/03/06 05:38:50;;;;;;;46.47;24.20;;;;;;;0.59;67.18;99520.06;2301877;77;21064;-83
2022/03/06 05:41:51;;;;;;;42.90;22.07;;;;;;;0.58;67.04;99527.28;2303096;77;21004;-83
2022/03/06 05:44:51;;;;;;;47.10;26.40;;;;;;;0.60;67.44;99529.55;2303127;77;21025;-84
2022/03/06 05:47:52;;;;;;;43.73;24.30;;;;;;;0.58;67.41;99528.57;2303262;77;21006;-85
2022/03/06 05:50:52;;;;;;;47.43;25.10;;;;;;;0.60;67.24;99521.84;2303456;77;21076;-84
2022/03/06 05:53:53;;;;;;;43.70;24.53;;;;;;;0.62;67.17;99528.36;2302833;77;20972;-83
2022/03/06 05:56:53;;;;;;;45.70;25.20;;;;;;;0.67;67.24;99526.96;2303557;77;20953;-84
2022/03/06 05:59:54;;;;;;;41.23;23.43;;;;;;;0.69;67.16;99525.38;2303664;77;20945;-83
2022/03/06 06:02:55;;;;;;;41.70;23.40;;;;;;;0.70;67.22;99528.83;2303908;77;21013;-82
2022/03/06 06:05:56;;;;;;;41.43;23.13;;;;;;;0.71;67.06;99531.89;2305134;77;20996;-82
2022/03/06 06:08:56;;;;;;;40.83;23.23;;;;;;;0.73;67.11;99527.73;2305621;77;21032;-83
2022/03/06 06:11:57;;;;;;;45.60;22.90;;;;;;;0.74;67.08;99528.22;2304792;77;20973;-84
2022/03/06 06:14:57;;;;;;;48.67;23.03;;;;;;;0.80;66.93;99527.31;2305658;77;20949;-82
2022/03/06 06:17:58;;;;;;;42.70;23.17;;;;;;;0.82;66.83;99525.72;2305760;77;21000;-83
2022/03/06 06:20:59;;;;;;;43.07;22.83;;;;;;;0.83;67.25;99524.92;2304845;77;20929;-82
2022/03/06 06:23:59;;;;;;;42.47;22.67;;;;;;;0.79;66.88;99525.53;2305309;77;20941;-83
2022/03/06 06:26:59;;;;;;;41.67;24.03;;;;;;;0.82;66.87;99528.29;2305669;77;20965;-84
2022/03/06 06:30:00;;;;;;;44.07;26.33;;;;;;;0.84;66.72;99526.70;2306267;77;20897;-82
2022/03/06 06:33:00;;;;;;;47.53;26.10;;;;;;;0.89;66.58;99531.76;2305422;77;20984;-83
2022/03/06 06:36:01;;;;;;;71.77;40.40;;;;;;;0.96;71.82;99537.76;2303517;77;20953;-84
2022/03/06 06:39:01;;;;;;;86.23;48.53;;;;;;;4.32;89.45;99524.22;2317839;75;21022;-84
2022/03/06 06:42:03;;;;;;;51.10;29.87;;;;;;;6.11;68.35;99516.62;2319225;77;20979;-82
2022/03/06 06:45:03;;;;;;;39.97;24.40;;;;;;;4.96;62.71;99530.20;2319123;77;21042;-82
2022/03/06 06:48:04;;;;;;;41.53;24.53;;;;;;;3.92;61.88;99526.59;2319828;77;20915;-84
2022/03/06 06:51:04;;;;;;;40.50;22.07;;;;;;;3.21;62.00;99526.42;2287493;77;21366;-83
2022/03/06 06:54:05;;;;;;;42.00;23.57;;;;;;;2.70;62.13;99531.03;2318914;77;20951;-83
2022/03/06 06:57:05;;;;;;;37.93;22.63;;;;;;;2.34;62.93;99534.64;2318971;77;20946;-82
2022/03/06 07:00:07;;;;;;;40.33;22.93;;;;;;;2.09;63.03;99539.23;2318915;77;20910;-81
2022/03/06 07:03:08;;;;;;;43.07;22.80;;;;;;;1.89;63.40;99539.41;2318697;77;21000;-83
2022/03/06 07:06:09;;;;;;;39.00;22.70;;;;;;;1.75;63.58;99537.33;2319523;77;21007;-83
2022/03/06 07:09:09;;;;;;;38.63;22.87;;;;;;;1.67;63.85;99541.52;2319291;77;21276;-83
2022/03/06 07:12:11;;;;;;;42.97;23.43;;;;;;;1.61;63.93;99544.63;2318204;77;20971;-82
2022/03/06 07:15:12;;;;;;;40.70;23.27;;;;;;;1.58;64.00;99541.87;2319374;77;20927;-82
2022/03/06 07:18:12;;;;;;;35.47;21.97;;;;;;;1.54;64.22;99538.63;2319509;77;20935;-83
2022/03/06 07:21:13;;;;;;;143.40;88.47;;;;;;;1.50;64.45;99536.28;2317956;77;20903;-84
2022/03/06 07:24:13;;;;;;;138.03;86.30;;;;;;;2.64;84.51;99530.30;2317370;77;20959;-83
2022/03/06 07:27:14;;;;;;;60.50;37.87;;;;;;;6.00;72.10;99518.75;2320019;77;21003;-83
2022/03/06 07:30:14;;;;;;;40.10;25.10;;;;;;;5.34;61.54;99522.85;2319143;77;20967;-82
2022/03/06 07:33:15;;;;;;;41.90;24.83;;;;;;;4.29;60.03;99526.66;2319688;77;20979;-83
2022/03/06 07:36:15;;;;;;;37.80;20.93;;;;;;;3.58;60.22;99530.91;2319881;77;20884;-83
2022/03/06 07:39:16;;;;;;;35.97;21.60;;;;;;;3.05;60.47;99537.64;2318940;76;20995;-83
2022/03/06 07:42:16;;;;;;;40.23;22.27;;;;;;;2.68;60.90;99537.80;2319487;77;21004;-82
2022/03/06 07:45:17;;;;;;;36.10;21.53;;;;;;;2.39;61.05;99539.64;2319285;77;21410;-82
2022/03/06 07:48:18;;;;;;;35.87;20.87;;;;;;;2.21;61.29;99538.23;2319616;77;20954;-82
2022/03/06 07:51:21;;;;;;;35.83;20.43;;;;;;;2.05;61.53;99534.71;2319312;77;20995;-83
2022/03/06 07:54:22;;;;;;;37.53;21.40;;;;;;;1.93;61.90;99534.02;2319477;77;20984;-83
2022/03/06 07:57:22;;;;;;;36.73;20.20;;;;;;;1.86;62.25;99536.25;2319520;77;20936;-82
2022/03/06 08:00:23;;;;;;;40.43;23.63;;;;;;;1.84;62.39;99531.81;2319663;77;20923;-83
2022/03/06 08:03:24;;;;;;;43.53;22.97;;;;;;;1.87;62.01;99531.59;2319466;77;20931;-82
2022/03/06 08:06:24;;;;;;;41.57;22.20;;;;;;;1.89;61.56;99537.71;2319290;77;20950;-83
2022/03/06 08:09:25;;;;;;;38.03;22.83;;;;;;;1.89;61.68;99531.28;2318599;77;20986;-82
2022/03/06 08:12:26;;;;;;;41.37;20.73;;;;;;;1.97;61.60;99528.25;2319591;77;20963;-83
2022/03/06 08:15:27;;;;;;;38.03;21.17;;;;;;;1.98;61.58;99531.31;2319562;77;20951;-83
2022/03/06 08:18:27;;;;;;;38.77;22.27;;;;;;;2.00;61.44;99529.30;2318637;77;20993;-83
2022/03/06 08:21:28;;;;;;;46.93;24.07;;;;;;;2.06;61.37;99524.90;2318615;77;20974;-83
2022/03/06 08:24:30;;;;;;;37.97;22.57;;;;;;;2.08;60.92;99527.16;2319135;77;20947;-82
2022/03/06 08:27:32;;;;;;;40.07;21.80;;;;;;;2.09;61.19;99523.78;2319894;77;20978;-82
2022/03/06 08:30:32;;;;;;;36.20;21.83;;;;;;;2.07;60.81;99523.70;2319652;77;20978;-83
2022/03/06 08:33:33;;;;;;;37.63;21.70;;;;;;;2.09;60.74;99522.50;2319356;77;20987;-83
2022/03/06 08:36:34;;;;;;;87.33;52.30;;;;;;;2.13;60.35;99524.04;2318259;77;20986;-84
2022/03/06 08:39:34;;;;;;;289.83;211.83;;;;;;;2.27;69.11;99519.65;2303674;77;21030;-82
2022/03/06 08:42:35;;;;;;;92.07;60.07;;;;;;;5.00;71.96;99511.00;2305756;77;20957;-82
2022/03/06 08:45:37;;;;;;;55.67;34.27;;;;;;;5.33;59.21;99510.73;2306380;77;21051;-82
2022/03/06 08:48:37;;;;;;;42.00;24.43;;;;;;;4.62;57.42;99508.39;2306002;77;21047;-82
2022/03/06 08:51:38;;;;;;;36.50;22.30;;;;;;;4.15;56.41;99510.91;2306489;77;20999;-82
2022/03/06 08:54:38;;;;;;;35.43;22.10;;;;;;;3.81;56.10;99512.27;2306278;77;21046;-82
2022/03/06 08:57:39;;;;;;;36.70;21.63;;;;;;;3.60;56.16;99506.94;2306128;77;20910;-82
2022/03/06 09:00:39;;;;;;;34.20;21.50;;;;;;;3.40;55.75;99509.78;2306109;77;20925;-82
2022/03/06 09:03:40;;;;;;;31.30;20.90;;;;;;;3.31;55.44;99516.17;2305807;77;20996;-84
2022/03/06 09:06:42;;;;;;;30.60;18.90;;;;;;;3.28;55.40;99510.45;2305997;77;21063;-82
2022/03/06 09:09:42;;;;;;;33.70;19.40;;;;;;;3.29;54.97;99512.63;2306119;77;21048;-82
2022/03/06 09:12:43;;;;;;;27.53;18.90;;;;;;;3.29;54.34;99512.63;2306037;77;20996;-83
2022/03/06 09:15:43;;;;;;;34.00;18.93;;;;;;;3.31;54.44;99512.30;2305347;77;20906;-82
2022/03/06 09:18:46;;;;;;;27.27;17.47;;;;;;;3.37;54.24;99505.75;2305386;77;20960;-83
2022/03/06 09:21:46;;;;;;;23.20;16.47;;;;;;;3.35;53.22;99507.78;2305270;77;20989;-83
2022/03/06 09:24:47;;;;;;;24.77;16.13;;;;;;;3.34;53.09;99513.75;2306105;77;20979;-83
2022/03/06 09:27:47;;;;;;;147.37;100.13;;;;;;;3.31;52.45;99512.30;2304411;77;20977;-85
2022/03/06 09:30:48;;;;;;;85.10;63.00;;;;;;;4.97;72.08;99509.56;2304727;77;20956;-82
2022/03/06 09:33:48;;;;;;;34.67;26.10;;;;;;;7.91;57.58;99498.18;2305829;77;20969;-82
2022/03/06 09:36:49;;;;;;;22.30;16.73;;;;;;;7.11;49.87;99497.14;2305223;76;20973;-84
2022/03/06 09:39:49;;;;;;;21.23;14.43;;;;;;;5.96;47.10;99501.31;2287337;78;20998;-82
2022/03/06 09:42:50;;;;;;;18.73;14.97;;;;;;;5.21;47.50;99511.08;2287141;78;21002;-82
2022/03/06 09:45:50;;;;;;;17.00;13.20;;;;;;;4.85;47.77;99504.25;2287245;78;20966;-82
2022/03/06 09:48:51;;;;;;;13.37;11.43;;;;;;;4.65;47.29;99505.95;2287366;78;21290;-82
2022/03/06 09:51:51;;;;;;;15.27;11.57;;;;;;;4.50;46.22;99507.42;2286240;78;21396;-83
2022/03/06 09:54:52;;;;;;;14.60;12.17;;;;;;;4.35;46.84;99502.42;2287375;78;20990;-83
2022/03/06 09:57:52;;;;;;;15.33;10.80;;;;;;;4.34;46.67;99499.77;2287292;78;20967;-83
2022/03/06 10:00:53;;;;;;;14.83;11.20;;;;;;;4.35;46.54;99497.25;2286916;78;20958;-82
2022/03/06 10:03:53;;;;;;;14.83;11.53;;;;;;;4.19;46.26;99496.03;2286729;78;20957;-81
2022/03/06 10:06:54;;;;;;;21.57;13.90;;;;;;;3.96;45.89;99492.76;2287641;78;20954;-83
2022/03/06 10:09:54;;;;;;;15.77;11.90;;;;;;;3.79;45.74;99493.23;2287733;78;21010;-82
2022/03/06 10:12:55;;;;;;;17.33;13.40;;;;;;;3.64;45.18;99500.23;2287706;78;20962;-83
2022/03/06 10:15:55;;;;;;;70.00;52.60;;;;;;;3.48;46.00;99502.45;2285485;78;20900;-81
2022/03/06 10:18:56;;;;;;;30.00;21.43;;;;;;;6.48;67.72;99487.83;2287578;78;20959;-84
2022/03/06 10:21:56;;;;;;;22.03;15.77;;;;;;;7.03;47.45;99488.19;2287283;78;20966;-82
2022/03/06 10:24:57;;;;;;;15.87;12.97;;;;;;;6.10;44.81;99491.53;2285979;78;20927;-82
2022/03/06 10:27:58;;;;;;;14.93;11.70;;;;;;;5.42;44.62;99490.00;2287868;78;20939;-82
2022/03/06 10:30:58;;;;;;;13.77;10.93;;;;;;;4.93;44.15;99495.13;2287042;78;20986;-82
2022/03/06 10:33:59;;;;;;;17.30;12.20;;;;;;;4.62;44.73;99489.00;2287710;78;20935;-82
2022/03/06 10:37:01;;;;;;;14.33;11.40;;;;;;;4.34;44.51;99486.84;2287887;76;21303;-82
2022/03/06 10:40:02;;;;;;;17.37;12.23;;;;;;;4.23;44.56;99491.89;2287461;78;21055;-82
2022/03/06 10:43:03;;;;;;;18.73;11.40;;;;;;;4.05;44.48;99491.91;2286842;78;20990;-82
2022/03/06 10:46:03;;;;;;;16.17;12.30;;;;;;;3.97;44.67;99485.48;2287274;78;20922;-82
2022/03/06 10:49:08;;;;;;;15.63;12.77;;;;;;;3.87;45.04;99485.45;2287243;78;20962;-82
2022/03/06 10:52:06;;;;;;;17.73;13.00;;;;;;;3.80;44.46;99480.39;2286573;78;20997;-82
2022/03/06 10:55:06;;;;;;;17.00;11.87;;;;;;;3.66;44.77;99469.80;2287354;78;21006;-82
2022/03/06 10:58:07;;;;;;;13.93;11.40;;;;;;;3.53;45.29;99471.71;2287607;78;20998;-82
2022/03/06 11:01:08;;;;;;;15.43;11.73;;;;;;;3.37;45.03;99466.16;2288050;78;20998;-82
2022/03/06 11:04:08;;;;;;;15.53;12.70;;;;;;;3.24;45.22;99465.06;2286824;78;20950;-83
2022/03/06 11:07:09;;;;;;;15.17;12.00;;;;;;;3.13;45.46;99473.15;2287456;78;20959;-83
2022/03/06 11:10:09;;;;;;;17.37;12.27;;;;;;;3.16;45.94;99470.72;2286823;78;20970;-83
2022/03/06 11:13:13;;;;;;;110.90;79.60;;;;;;;3.17;45.48;99464.76;2285415;78;21018;-83
2022/03/06 11:16:13;;;;;;;42.97;29.53;;;;;;;5.88;68.49;99453.45;2287885;78;21018;-83
2022/03/06 11:19:14;;;;;;;22.50;17.37;;;;;;;7.02;46.64;99444.48;2287447;78;20978;-82
2022/03/06 11:22:15;;;;;;;20.73;15.53;;;;;;;6.05;44.05;99444.66;2287477;78;20895;-83
2022/03/06 11:25:17;;;;;;;17.37;11.70;;;;;;;5.25;44.06;99453.86;2286991;78;21360;-82
2022/03/06 11:28:18;;;;;;;19.27;11.77;;;;;;;4.79;43.75;99457.02;2286963;78;21394;-82
2022/03/06 11:31:18;;;;;;;22.37;13.40;;;;;;;4.36;42.80;99449.03;2287021;78;20939;-83
2022/03/06 11:34:19;;;;;;;17.43;12.60;;;;;;;3.86;43.38;99451.80;2287361;78;21317;-83
2022/03/06 11:37:19;;;;;;;17.67;12.53;;;;;;;3.43;43.80;99445.81;2288100;77;21382;-83
2022/03/06 11:40:20;;;;;;;18.60;13.23;;;;;;;3.10;44.68;99438.57;2304732;77;21005;-83
2022/03/06 11:43:20;;;;;;;17.03;13.07;;;;;;;2.86;44.58;99448.53;2305480;77;20953;-83
2022/03/06 11:46:21;;;;;;;19.70;13.90;;;;;;;2.68;45.42;99442.02;2305151;77;20938;-83
2022/03/06 11:49:21;;;;;;;20.17;14.40;;;;;;;2.64;45.32;99439.20;2305290;77;20957;-83
2022/03/06 11:52:22;;;;;;;21.57;15.03;;;;;;;2.62;45.31;99433.08;2305132;77;21003;-83
2022/03/06 11:55:22;;;;;;;20.03;14.40;;;;;;;2.54;45.58;99431.35;2305271;77;20949;-84
2022/03/06 11:58:23;;;;;;;22.13;15.87;;;;;;;2.45;45.31;99433.45;2305938;77;20992;-84
2022/03/06 12:01:23;;;;;;;21.20;14.83;;;;;;;2.41;45.91;99431.51;2305914;77;20984;-83
2022/03/06 12:04:24;;;;;;;146.23;101.13;;;;;;;2.43;48.90;99427.33;2302949;77;20929;-83
2022/03/06 12:07:25;;;;;;;41.30;29.20;;;;;;;5.96;65.91;99406.31;2305576;77;21391;-82
2022/03/06 12:10:26;;;;;;;19.73;15.73;;;;;;;7.12;46.25;99401.97;2305600;77;21041;-82
2022/03/06 12:13:26;;;;;;;17.80;14.13;;;;;;;5.86;43.46;99403.27;2305391;77;20952;-83
2022/03/06 12:16:27;;;;;;;18.43;13.83;;;;;;;4.80;42.00;99409.64;2306195;77;21008;-82
2022/03/06 12:19:27;;;;;;;20.37;13.50;;;;;;;4.00;43.39;99410.31;2305867;77;20992;-82
2022/03/06 12:22:28;;;;;;;16.70;12.90;;;;;;;3.65;44.29;99407.36;2306490;77;20984;-82
2022/03/06 12:25:33;;;;;;;21.00;15.63;;;;;;;3.41;44.45;99402.28;2306520;77;20890;-82
2022/03/06 12:28:33;;;;;;;20.20;15.10;;;;;;;3.24;44.88;99400.56;2305679;77;20945;-83
2022/03/06 12:31:34;;;;;;;20.03;14.83;;;;;;;3.06;44.97;99401.83;2305618;77;20969;-84
2022/03/06 12:34:35;;;;;;;23.67;16.33;;;;;;;2.93;45.53;99398.16;2305586;77;20953;-83
2022/03/06 12:37:36;;;;;;;22.90;15.33;;;;;;;2.82;46.13;99398.49;2303924;76;20992;-82
2022/03/06 12:40:38;;;;;;;86.03;61.63;;;;;;;2.70;45.89;99406.89;2286509;78;20987;-82
2022/03/06 12:43:38;;;;;;;25.40;19.40;;;;;;;3.88;67.08;99390.38;2285840;78;21000;-82
2022/03/06 12:46:39;;;;;;;19.40;14.87;;;;;;;7.39;48.58;99373.03;2259579;78;20986;-81
2022/03/06 12:49:39;;;;;;;19.00;14.03;;;;;;;6.25;42.69;99371.58;2286552;78;20977;-83
2022/03/06 12:52:40;;;;;;;21.10;15.27;;;;;;;5.02;43.02;99378.70;2286060;78;21002;-83
2022/03/06 12:55:40;;;;;;;17.27;13.97;;;;;;;4.24;42.61;99382.55;2286925;78;20958;-83
2022/03/06 12:58:44;;;;;;;19.47;14.30;;;;;;;3.55;43.52;99374.17;2287860;78;21010;-83
2022/03/06 13:01:44;;;;;;;17.80;13.57;;;;;;;3.20;44.08;99373.73;2288229;78;21013;-82
2022/03/06 13:04:45;;;;;;;19.10;13.80;;;;;;;2.89;44.49;99371.33;2287527;78;20986;-81
2022/03/06 13:07:45;;;;;;;22.23;14.07;;;;;;;2.74;44.83;99370.55;2288249;78;20969;-82
2022/03/06 13:10:46;;;;;;;16.97;13.10;;;;;;;2.68;45.18;99363.80;2287688;78;20998;-82
2022/03/06 13:13:46;;;;;;;21.83;14.70;;;;;;;2.63;45.06;99372.58;2287999;78;20985;-81
2022/03/06 13:16:47;;;;;;;23.57;15.47;;;;;;;2.60;45.96;99372.80;2287664;78;21358;-82
2022/03/06 13:19:47;;;;;;;23.43;15.60;;;;;;;2.48;46.54;99371.36;2286705;78;21354;-82
2022/03/06 13:22:48;;;;;;;22.47;14.67;;;;;;;2.35;47.40;99368.95;2285378;78;20989;-81
2022/03/06 13:25:49;;;;;;;24.17;15.97;;;;;;;2.26;46.98;99371.45;2286538;78;20982;-81
2022/03/06 13:28:49;;;;;;;21.87;14.60;;;;;;;2.20;47.69;99370.31;2286863;78;20923;-82
2022/03/06 13:31:50;;;;;;;24.67;14.73;;;;;;;2.09;47.46;99367.58;2286759;78;20985;-81
2022/03/06 13:34:51;;;;;;;19.03;13.60;;;;;;;1.97;47.65;99368.20;2287508;78;21364;-82
2022/03/06 13:37:51;;;;;;;18.03;13.53;;;;;;;1.82;47.84;99369.55;2287510;76;21026;-83
2022/03/06 13:40:53;;;;;;;31.57;20.93;;;;;;;1.78;48.14;99366.33;2287195;78;21019;-81
2022/03/06 13:43:54;;;;;;;23.17;14.73;;;;;;;1.80;48.28;99366.41;2286507;78;20946;-82
2022/03/06 13:46:55;;;;;;;155.33;109.73;;;;;;;1.75;48.30;99367.86;2286091;78;20947;-83
2022/03/06 13:49:55;;;;;;;22.50;15.10;;;;;;;4.28;74.86;99360.78;2286401;78;21337;-83
2022/03/06 13:52:56;;;;;;;25.93;16.33;;;;;;;6.24;45.40;99356.85;2286096;78;21294;-82
2022/03/06 13:55:58;;;;;;;24.67;16.37;;;;;;;4.87;44.81;99359.94;2285575;78;20954;-81
2022/03/06 14:02:03;;;;;;;22.40;15.77;;;;;;;3.30;44.63;99358.30;2256279;78;21018;-82
2022/03/06 14:05:04;;;;;;;22.33;14.67;;;;;;;2.80;45.56;99359.27;2285080;78;20983;-81
2022/03/06 14:08:04;;;;;;;21.27;16.43;;;;;;;2.46;46.11;99363.95;2285577;78;20970;-82
2022/03/06 14:11:05;;;;;;;17.63;14.30;;;;;;;2.35;46.95;99361.63;2285261;78;21091;-82